Time;durP1;ratioP1;P1;durP2;ratioP2;P2;SDS_P1;SDS_P2;PMS_P1;PMS_P2;Temp;Humidity;BMP_temperature;BMP_pressure;BME280_temperature;BME280_humidity;BME280_pressure;Samples;Min_cycle;Max_cycle;Signal;HPM_P1;HPM_P2
2022/07/28 00:01:24;;;;;;;2.15;1.20;;;20.10;82.80;;;;;;5029970;28;20224;-26
2022/07/28 00:03:51;;;;;;;4.35;1.33;;;20.00;83.00;;;;;;5019526;28;20601;-26
2022/07/28 00:06:18;;;;;;;3.10;1.23;;;20.00;82.70;;;;;;5036663;28;20229;-26
2022/07/28 00:08:46;;;;;;;1.98;1.25;;;20.00;83.10;;;;;;5016072;28;20216;-26
2022/07/28 00:11:18;;;;;;;3.63;1.20;;;20.00;83.10;;;;;;5015126;28;20683;-26
2022/07/28 00:13:47;;;;;;;4.05;1.08;;;20.00;82.90;;;;;;5020541;28;20208;-26
2022/07/28 00:16:15;;;;;;;5.28;1.60;;;20.00;83.40;;;;;;5024959;28;20216;-26
2022/07/28 00:18:46;;;;;;;1.67;1.23;;;19.90;83.00;;;;;;5025121;28;20703;-26
2022/07/28 00:21:14;;;;;;;5.95;1.77;;;19.90;82.80;;;;;;5021601;28;20303;-26
2022/07/28 00:23:45;;;;;;;2.92;1.38;;;19.90;83.60;;;;;;5020356;28;20197;-26
2022/07/28 00:26:13;;;;;;;2.83;1.10;;;19.80;83.00;;;;;;5024932;28;20198;-26
2022/07/28 00:28:42;;;;;;;2.83;1.40;;;19.80;83.00;;;;;;5017312;28;20683;-26
2022/07/28 00:31:09;;;;;;;2.75;1.20;;;19.70;83.20;;;;;;5018509;28;20698;-26
2022/07/28 00:33:39;;;;;;;2.55;1.40;;;19.70;83.00;;;;;;5017395;28;20301;-26
2022/07/28 00:36:09;;;;;;;4.80;1.17;;;19.70;83.00;;;;;;5013733;28;20201;-26
2022/07/28 00:38:40;;;;;;;3.47;1.33;;;19.70;82.90;;;;;;5000753;28;20224;-23
2022/07/28 00:41:11;;;;;;;2.70;1.20;;;19.70;83.10;;;;;;5038967;28;20213;-23
2022/07/28 00:43:44;;;;;;;2.22;1.15;;;19.60;83.40;;;;;;5013785;28;20814;-23
2022/07/28 00:46:12;;;;;;;2.05;1.48;;;19.60;83.50;;;;;;5026835;28;20201;-26
2022/07/28 00:48:44;;;;;;;3.45;1.55;;;19.60;83.20;;;;;;5024902;28;20224;-26
2022/07/28 00:51:16;;;;;;;2.00;1.27;;;19.60;83.80;;;;;;5018088;28;20279;-26
2022/07/28 00:53:46;;;;;;;2.45;1.27;;;19.50;83.20;;;;;;5027461;28;20627;-26
2022/07/28 00:56:14;;;;;;;2.70;1.17;;;19.50;83.30;;;;;;5018752;28;20316;-26
2022/07/28 00:58:41;;;;;;;1.67;1.40;;;19.50;83.10;;;;;;5021631;28;20283;-26
2022/07/28 01:01:14;;;;;;;1.75;1.40;;;19.50;83.20;;;;;;5021551;28;20219;-26
2022/07/28 01:03:44;;;;;;;5.55;1.88;;;19.50;83.40;;;;;;5019831;28;20216;-26
2022/07/28 01:06:15;;;;;;;4.05;1.40;;;19.40;84.00;;;;;;5026573;28;20217;-26
2022/07/28 01:09:01;;;;;;;1.50;1.05;;;19.30;84.00;;;;;;5011682;28;20264;-26
2022/07/28 01:11:31;;;;;;;2.10;1.00;;;19.30;83.60;;;;;;5020252;28;20270;-26
2022/07/28 01:14:17;;;;;;;3.70;1.52;;;19.20;83.60;;;;;;5016654;28;20296;-27
2022/07/28 01:17:10;;;;;;;2.75;1.23;;;19.20;84.00;;;;;;5016209;28;20680;-26
2022/07/28 01:20:05;;;;;;;1.85;1.25;;;19.20;85.10;;;;;;5011689;28;20251;-26
2022/07/28 01:22:40;;;;;;;2.78;1.17;;;19.10;84.00;;;;;;5011460;28;20255;-26
2022/07/28 01:25:33;;;;;;;2.25;1.15;;;19.10;83.90;;;;;;5021872;28;20236;-26
2022/07/28 01:28:22;;;;;;;4.80;1.20;;;19.10;84.10;;;;;;5022369;28;20602;-27
2022/07/28 01:30:55;;;;;;;3.08;1.25;;;19.00;83.90;;;;;;5013827;28;20206;-26
2022/07/28 01:33:33;;;;;;;3.85;1.27;;;19.00;84.10;;;;;;5025125;28;20188;-26
2022/07/28 01:36:07;;;;;;;2.55;1.38;;;19.00;83.90;;;;;;5020477;28;20337;-26
2022/07/28 01:38:37;;;;;;;2.20;1.10;;;18.90;84.10;;;;;;5024186;28;20665;-26
2022/07/28 01:41:13;;;;;;;3.70;1.17;;;18.90;83.90;;;;;;5004501;28;20212;-26
2022/07/28 01:43:44;;;;;;;1.70;0.98;;;18.90;84.00;;;;;;5024499;28;20631;-26
2022/07/28 01:46:13;;;;;;;2.65;1.17;;;18.90;83.90;;;;;;5019382;28;20203;-26
2022/07/28 01:48:43;;;;;;;3.05;1.60;;;18.90;83.80;;;;;;5022614;28;21660;-26
2022/07/28 01:51:18;;;;;;;4.68;1.17;;;18.90;84.10;;;;;;5015918;28;20236;-26
2022/07/28 01:53:46;;;;;;;5.50;1.30;;;18.80;83.80;;;;;;5017240;28;20225;-26
2022/07/28 01:56:17;;;;;;;2.33;1.15;;;18.80;84.50;;;;;;5025716;28;20205;-27
2022/07/28 01:58:47;;;;;;;2.58;1.02;;;18.70;84.20;;;;;;5014055;28;20249;-26
2022/07/28 02:01:21;;;;;;;1.65;1.00;;;18.70;84.10;;;;;;5023407;28;20208;-26
2022/07/28 02:03:52;;;;;;;3.42;1.30;;;18.70;84.20;;;;;;5026098;28;20597;-26
2022/07/28 02:06:25;;;;;;;2.97;1.35;;;18.60;84.20;;;;;;5027690;28;20208;-26
2022/07/28 02:09:04;;;;;;;2.60;1.20;;;18.70;84.90;;;;;;5000683;28;20270;-26
2022/07/28 02:11:40;;;;;;;1.67;1.10;;;18.60;84.40;;;;;;5021623;28;20209;-26
2022/07/28 02:14:14;;;;;;;3.65;1.42;;;18.60;84.30;;;;;;5027766;28;20649;-26
2022/07/28 02:16:50;;;;;;;5.85;1.30;;;18.60;84.40;;;;;;5009073;28;20607;-26
2022/07/28 02:19:21;;;;;;;3.78;1.23;;;18.60;84.20;;;;;;5020450;28;20719;-26
2022/07/28 02:21:49;;;;;;;1.10;1.00;;;18.60;84.40;;;;;;5017106;28;20639;-26
2022/07/28 02:24:20;;;;;;;3.63;1.10;;;18.60;84.20;;;;;;5008559;28;20237;-26
2022/07/28 02:26:52;;;;;;;2.17;1.10;;;18.60;84.20;;;;;;5021040;28;20232;-26
2022/07/28 02:29:23;;;;;;;4.63;1.20;;;18.60;84.20;;;;;;5020405;28;20700;-26
2022/07/28 02:32:17;;;;;;;5.07;1.10;;;18.50;84.40;;;;;;5018150;28;20216;-26
2022/07/28 02:35:06;;;;;;;6.72;1.20;;;18.50;84.30;;;;;;5023005;28;20202;-26
2022/07/28 02:37:39;;;;;;;5.05;1.42;;;18.50;84.40;;;;;;5010770;28;20546;-26
2022/07/28 02:40:12;;;;;;;1.70;1.20;;;18.50;84.30;;;;;;5012705;28;20313;-26
2022/07/28 02:42:45;;;;;;;3.53;1.20;;;18.50;84.70;;;;;;5022812;28;20717;-26
2022/07/28 02:45:21;;;;;;;2.50;1.10;;;18.50;84.60;;;;;;5015435;28;20232;-26
2022/07/28 02:47:52;;;;;;;2.03;1.10;;;18.50;84.30;;;;;;5025023;28;20197;-26
2022/07/28 02:50:25;;;;;;;1.88;1.20;;;18.50;84.30;;;;;;5023428;28;20708;-26
2022/07/28 02:52:56;;;;;;;5.53;1.25;;;18.50;84.50;;;;;;5027338;28;20208;-26
2022/07/28 02:55:27;;;;;;;4.07;1.10;;;18.40;84.50;;;;;;5019729;28;20240;-26
2022/07/28 02:57:59;;;;;;;3.45;1.25;;;18.40;84.40;;;;;;5026704;28;20328;-23
2022/07/28 03:00:31;;;;;;;1.48;1.10;;;18.40;84.80;;;;;;5020631;28;20225;-23
2022/07/28 03:03:01;;;;;;;2.67;1.10;;;18.40;84.40;;;;;;5023645;28;20292;-23
2022/07/28 03:05:28;;;;;;;4.57;1.15;;;18.40;84.90;;;;;;5019000;28;20221;-23
2022/07/28 03:07:58;;;;;;;3.03;1.20;;;18.30;84.30;;;;;;5007719;28;20210;-26
2022/07/28 03:10:28;;;;;;;3.25;1.05;;;18.30;84.40;;;;;;5020107;28;20210;-26
2022/07/28 03:13:05;;;;;;;2.88;1.35;;;18.30;84.40;;;;;;5011051;28;20523;-26
2022/07/28 03:15:36;;;;;;;1.90;0.90;;;18.30;84.70;;;;;;5020108;28;20228;-26
2022/07/28 03:18:04;;;;;;;4.18;1.00;;;18.30;84.60;;;;;;5023104;28;20209;-26
2022/07/28 03:20:34;;;;;;;2.28;1.10;;;18.30;84.50;;;;;;5026265;28;20229;-26
2022/07/28 03:23:03;;;;;;;2.80;1.15;;;18.30;84.50;;;;;;5024282;28;20193;-26
2022/07/28 03:25:45;;;;;;;1.60;0.90;;;18.30;84.50;;;;;;5017707;28;20750;-26
2022/07/28 03:28:18;;;;;;;1.95;1.10;;;18.30;84.80;;;;;;5015820;28;20905;-26
2022/07/28 03:31:00;;;;;;;2.20;0.87;;;18.30;84.80;;;;;;5030811;28;20217;-25
2022/07/28 03:33:28;;;;;;;6.35;1.20;;;18.30;84.80;;;;;;5027109;28;20220;-26
2022/07/28 03:36:04;;;;;;;5.33;1.20;;;18.30;84.70;;;;;;5022344;28;20201;-26
2022/07/28 03:38:44;;;;;;;5.43;1.30;;;18.30;84.70;;;;;;5010033;28;20197;-26
2022/07/28 03:41:15;;;;;;;2.35;1.00;;;18.20;84.70;;;;;;5022906;28;20290;-26
2022/07/28 03:43:45;;;;;;;5.82;1.30;;;18.20;84.70;;;;;;5026094;28;20213;-26
2022/07/28 03:46:13;;;;;;;2.90;1.35;;;18.20;84.90;;;;;;5016790;28;20587;-26
2022/07/28 03:48:45;;;;;;;1.88;1.00;;;18.20;84.70;;;;;;5028168;28;20233;-26
2022/07/28 03:51:17;;;;;;;3.05;1.15;;;18.10;84.70;;;;;;5023350;28;20236;-26
2022/07/28 03:53:48;;;;;;;3.38;1.40;;;18.10;84.70;;;;;;5040016;28;20215;-26
2022/07/28 03:56:22;;;;;;;2.95;1.30;;;18.10;84.80;;;;;;5028774;28;20300;-26
2022/07/28 03:58:52;;;;;;;3.55;1.10;;;18.10;85.50;;;;;;5030123;28;20286;-26
2022/07/28 04:01:21;;;;;;;2.23;1.13;;;18.10;84.90;;;;;;5028391;28;20278;-26
2022/07/28 04:03:49;;;;;;;2.88;1.00;;;18.10;84.80;;;;;;5029700;28;20228;-26
2022/07/28 04:06:18;;;;;;;3.72;1.30;;;18.00;84.60;;;;;;5025441;28;20284;-26
2022/07/28 04:08:50;;;;;;;4.20;1.33;;;18.10;85.00;;;;;;5030698;28;20300;-26
2022/07/28 04:11:17;;;;;;;3.33;1.00;;;18.00;84.70;;;;;;5019189;28;20295;-26
2022/07/28 04:13:47;;;;;;;3.72;1.00;;;18.00;84.70;;;;;;5027258;28;20363;-23
2022/07/28 04:16:17;;;;;;;2.67;1.30;;;18.00;85.00;;;;;;5013213;28;20205;-26
2022/07/28 04:18:49;;;;;;;2.25;0.90;;;18.00;84.80;;;;;;5027699;28;20224;-26
2022/07/28 04:21:16;;;;;;;4.03;1.27;;;18.00;84.90;;;;;;5028943;28;20655;-26
2022/07/28 04:23:43;;;;;;;2.58;1.10;;;18.00;84.90;;;;;;5041136;28;20312;-26
2022/07/28 04:26:13;;;;;;;3.42;1.10;;;18.00;85.00;;;;;;5017185;28;20201;-26
2022/07/28 04:28:50;;;;;;;2.22;1.00;;;18.00;85.00;;;;;;5027850;28;20209;-27
2022/07/28 04:31:17;;;;;;;2.97;1.23;;;18.00;84.90;;;;;;5022303;28;20236;-26
2022/07/28 04:33:46;;;;;;;5.25;1.40;;;18.00;85.30;;;;;;5019794;28;20256;-26
2022/07/28 04:36:20;;;;;;;2.55;1.00;;;18.00;85.10;;;;;;5019154;28;20303;-26
2022/07/28 04:38:47;;;;;;;3.50;1.25;;;17.90;85.00;;;;;;5028752;28;20259;-26
2022/07/28 04:41:15;;;;;;;2.67;1.27;;;17.90;84.90;;;;;;5026390;28;20774;-26
2022/07/28 04:43:42;;;;;;;4.35;1.45;;;18.00;85.10;;;;;;5028138;28;20200;-23
2022/07/28 04:46:11;;;;;;;3.65;1.17;;;18.00;85.20;;;;;;5012827;28;20208;-23
2022/07/28 04:48:46;;;;;;;6.43;1.58;;;18.00;85.10;;;;;;5018377;28;20631;-23
2022/07/28 04:51:14;;;;;;;3.65;1.30;;;18.00;85.60;;;;;;5013122;28;20204;-23
2022/07/28 04:53:41;;;;;;;3.10;1.30;;;18.00;85.40;;;;;;5021115;28;20202;-23
2022/07/28 04:56:08;;;;;;;5.38;1.30;;;18.00;85.30;;;;;;5011977;28;20291;-23
2022/07/28 04:58:38;;;;;;;2.47;1.00;;;18.00;85.40;;;;;;5016156;28;20763;-26
2022/07/28 05:01:05;;;;;;;4.75;1.30;;;17.90;85.20;;;;;;5018267;28;20216;-26
2022/07/28 05:03:33;;;;;;;1.70;1.20;;;17.90;85.30;;;;;;5019961;28;20223;-26
2022/07/28 05:06:02;;;;;;;2.92;1.70;;;17.90;85.50;;;;;;5010107;28;20224;-26
2022/07/28 05:08:36;;;;;;;1.95;1.20;;;18.00;85.60;;;;;;5011669;28;20601;-26
2022/07/28 05:11:03;;;;;;;1.90;1.30;;;18.00;85.70;;;;;;5011624;28;20202;-26
2022/07/28 05:13:30;;;;;;;5.80;1.47;;;18.00;85.80;;;;;;5011037;28;20213;-26
2022/07/28 05:16:02;;;;;;;3.13;1.30;;;18.00;85.90;;;;;;5016244;28;20201;-26
2022/07/28 05:18:30;;;;;;;6.50;1.70;;;18.00;85.80;;;;;;5017628;28;20263;-26
2022/07/28 05:20:57;;;;;;;7.82;1.73;;;18.00;85.80;;;;;;5017597;28;20245;-26
2022/07/28 05:23:24;;;;;;;4.30;1.63;;;18.00;85.90;;;;;;5038881;28;20228;-26
2022/07/28 05:25:54;;;;;;;4.43;1.70;;;18.10;86.00;;;;;;5019765;28;20210;-26
2022/07/28 05:28:23;;;;;;;2.67;1.63;;;18.10;86.00;;;;;;5017168;28;20197;-26
2022/07/28 05:30:51;;;;;;;1.53;1.07;;;18.10;86.30;;;;;;5021865;28;20700;-26
2022/07/28 05:33:21;;;;;;;3.80;1.58;;;18.10;86.00;;;;;;5020912;28;20452;-26
2022/07/28 05:35:56;;;;;;;2.70;1.27;;;18.10;86.10;;;;;;5016723;28;20306;-26
2022/07/28 05:38:23;;;;;;;4.07;1.23;;;18.10;86.10;;;;;;5015920;28;20210;-26
2022/07/28 05:40:51;;;;;;;3.72;1.55;;;18.20;86.70;;;;;;5009187;28;20704;-26
2022/07/28 05:43:21;;;;;;;2.77;1.30;;;18.10;86.00;;;;;;5016432;28;20205;-27
2022/07/28 05:45:50;;;;;;;3.43;1.20;;;18.10;86.10;;;;;;5013903;28;20296;-26
2022/07/28 05:48:22;;;;;;;2.33;1.47;;;18.10;86.10;;;;;;5021502;28;20211;-27
2022/07/28 05:50:53;;;;;;;4.07;1.23;;;18.10;86.20;;;;;;5022628;28;20204;-26
2022/07/28 05:53:23;;;;;;;3.63;1.40;;;18.10;86.20;;;;;;5019608;28;20204;-26
2022/07/28 05:55:50;;;;;;;4.40;1.45;;;18.10;86.20;;;;;;5013905;28;20198;-26
2022/07/28 05:58:31;;;;;;;2.95;1.17;;;18.10;86.10;;;;;;5018857;28;20710;-26
2022/07/28 06:01:03;;;;;;;2.63;1.50;;;18.10;86.10;;;;;;5019754;28;20260;-26
2022/07/28 06:03:33;;;;;;;4.15;1.48;;;18.10;86.20;;;;;;5011148;28;20824;-26
2022/07/28 06:06:07;;;;;;;1.58;1.00;;;18.00;86.90;;;;;;5018404;28;20254;-26
2022/07/28 06:08:47;;;;;;;2.47;1.42;;;18.00;86.70;;;;;;5028631;28;20681;-26
2022/07/28 06:11:16;;;;;;;4.63;1.40;;;18.00;86.50;;;;;;5028717;28;20604;-27
2022/07/28 06:13:54;;;;;;;3.00;1.58;;;18.00;86.40;;;;;;5021910;28;20718;-27
2022/07/28 06:16:26;;;;;;;4.45;1.30;;;18.00;86.60;;;;;;5010883;28;20719;-26
2022/07/28 06:18:55;;;;;;;6.43;1.40;;;18.00;86.50;;;;;;5006279;28;20205;-26
2022/07/28 06:21:23;;;;;;;4.80;1.23;;;17.90;86.80;;;;;;5006847;28;22036;-26
2022/07/28 06:23:55;;;;;;;4.65;1.50;;;18.00;86.80;;;;;;5014590;28;20221;-26
2022/07/28 06:26:22;;;;;;;4.93;1.23;;;17.90;87.20;;;;;;5007123;28;20324;-26
2022/07/28 06:28:57;;;;;;;3.47;1.27;;;18.00;87.10;;;;;;5010688;28;20338;-26
2022/07/28 06:31:24;;;;;;;5.82;1.60;;;18.00;87.40;;;;;;5009750;28;20197;-26
2022/07/28 06:33:52;;;;;;;4.22;1.65;;;17.90;87.00;;;;;;5011146;28;20202;-26
2022/07/28 06:36:19;;;;;;;7.03;1.58;;;18.00;87.00;;;;;;5010784;28;20207;-23
2022/07/28 06:38:47;;;;;;;5.00;1.20;;;18.00;87.20;;;;;;5016155;28;20296;-24
2022/07/28 06:41:15;;;;;;;3.58;1.63;;;18.00;87.00;;;;;;5016130;28;20606;-23
2022/07/28 06:43:42;;;;;;;2.75;1.70;;;18.10;88.00;;;;;;5010207;28;20204;-23
2022/07/28 06:46:17;;;;;;;2.75;1.17;;;18.10;87.40;;;;;;5010467;28;21145;-24
2022/07/28 06:48:47;;;;;;;3.40;1.20;;;18.20;87.90;;;;;;5022934;28;20214;-23
2022/07/28 06:51:18;;;;;;;4.30;1.40;;;18.20;87.40;;;;;;5016020;28;20333;-24
2022/07/28 06:53:51;;;;;;;5.15;1.90;;;18.30;87.60;;;;;;5016293;28;20546;-23
2022/07/28 06:56:21;;;;;;;4.10;1.13;;;18.30;87.70;;;;;;5013084;28;20212;-28
2022/07/28 06:58:49;;;;;;;3.17;1.27;;;18.40;87.70;;;;;;5015172;28;20232;-24
2022/07/28 07:01:21;;;;;;;4.40;1.73;;;18.50;87.80;;;;;;5015486;28;20239;-23
2022/07/28 07:03:48;;;;;;;4.20;1.40;;;18.60;88.00;;;;;;5014068;28;20200;-23
2022/07/28 07:06:16;;;;;;;4.15;1.42;;;18.70;88.20;;;;;;5016055;28;20208;-24
2022/07/28 07:08:43;;;;;;;2.40;1.80;;;18.70;88.60;;;;;;5018753;28;20201;-23
2022/07/28 07:11:12;;;;;;;3.88;1.50;;;18.80;88.50;;;;;;5013774;28;20316;-23
2022/07/28 07:13:40;;;;;;;4.47;1.42;;;18.90;88.30;;;;;;5019986;28;20259;-23
2022/07/28 07:16:12;;;;;;;7.57;1.70;;;19.00;88.50;;;;;;5013732;28;20221;-24
2022/07/28 07:18:39;;;;;;;2.25;1.25;;;19.10;88.70;;;;;;5018741;28;20221;-24
2022/07/28 07:21:13;;;;;;;5.90;1.38;;;19.10;88.70;;;;;;5026909;28;20224;-23
2022/07/28 07:23:40;;;;;;;2.22;1.35;;;19.30;88.80;;;;;;5030467;28;20212;-23
2022/07/28 07:26:07;;;;;;;3.33;1.20;;;19.40;89.00;;;;;;5018502;28;20209;-24
2022/07/28 07:28:35;;;;;;;5.75;1.60;;;19.50;89.20;;;;;;5011525;28;20676;-24
2022/07/28 07:31:04;;;;;;;3.45;1.58;;;19.60;89.20;;;;;;5016421;28;20216;-24
2022/07/28 07:33:32;;;;;;;2.65;1.20;;;19.60;89.00;;;;;;5026742;28;20600;-23
2022/07/28 07:35:59;;;;;;;5.05;1.58;;;19.70;89.10;;;;;;5025424;28;20243;-26
2022/07/28 07:38:29;;;;;;;3.60;1.60;;;19.80;89.10;;;;;;5020933;28;20256;-26
2022/07/28 07:40:59;;;;;;;3.15;1.33;;;19.80;89.20;;;;;;5018692;28;20275;-26
2022/07/28 07:43:26;;;;;;;3.35;1.38;;;19.80;89.10;;;;;;5028646;28;20637;-26
2022/07/28 07:45:56;;;;;;;3.55;1.30;;;19.80;89.10;;;;;;5024913;28;20212;-25
2022/07/28 07:48:23;;;;;;;3.72;1.20;;;19.80;89.00;;;;;;5019125;28;20579;-26
2022/07/28 07:50:50;;;;;;;2.00;1.20;;;19.80;88.90;;;;;;5022961;28;20225;-26
2022/07/28 07:53:21;;;;;;;3.40;1.40;;;19.80;88.90;;;;;;5041181;28;20591;-26
2022/07/28 07:55:49;;;;;;;5.43;1.95;;;19.90;88.90;;;;;;5014968;28;20276;-26
2022/07/28 07:58:19;;;;;;;3.40;1.45;;;19.90;89.20;;;;;;5017946;28;20332;-27
2022/07/28 08:00:46;;;;;;;3.53;1.80;;;19.90;89.10;;;;;;5019404;28;20221;-25
2022/07/28 08:03:15;;;;;;;2.53;1.60;;;19.90;89.10;;;;;;5022861;28;20669;-26
2022/07/28 08:05:48;;;;;;;2.83;1.40;;;19.90;88.90;;;;;;5029539;28;20192;-26
2022/07/28 08:08:16;;;;;;;5.53;1.65;;;20.00;89.00;;;;;;5029251;28;20236;-26
2022/07/28 08:10:49;;;;;;;2.55;1.27;;;20.00;89.20;;;;;;5015183;28;20220;-26
2022/07/28 08:13:19;;;;;;;3.22;1.38;;;20.00;89.20;;;;;;5010764;28;20252;-25
2022/07/28 08:15:46;;;;;;;2.58;1.40;;;20.00;89.40;;;;;;5016953;28;20216;-26
2022/07/28 08:18:16;;;;;;;4.05;1.55;;;20.10;89.40;;;;;;5012221;28;20242;-31
2022/07/28 08:20:48;;;;;;;4.75;1.60;;;20.10;89.40;;;;;;5015474;28;20221;-25
2022/07/28 08:23:17;;;;;;;6.03;1.75;;;20.20;89.50;;;;;;5029925;28;20193;-26
2022/07/28 08:25:56;;;;;;;3.50;1.38;;;20.20;89.40;;;;;;5028920;28;20212;-26
2022/07/28 08:28:23;;;;;;;3.10;1.55;;;20.20;89.50;;;;;;5024437;28;20827;-26
2022/07/28 08:30:51;;;;;;;3.97;1.63;;;20.20;89.50;;;;;;5028562;28;20633;-23
2022/07/28 08:33:20;;;;;;;3.00;1.30;;;20.30;89.60;;;;;;5017567;28;20201;-23
2022/07/28 08:35:50;;;;;;;2.63;1.20;;;20.30;89.70;;;;;;5030020;28;20205;-23
2022/07/28 08:38:18;;;;;;;4.68;1.42;;;20.30;89.50;;;;;;5021347;28;20213;-23
2022/07/28 08:40:50;;;;;;;3.70;1.33;;;20.40;89.60;;;;;;5008681;28;20222;-23
2022/07/28 08:43:33;;;;;;;4.70;1.60;;;20.50;89.60;;;;;;5012025;28;20198;-23
2022/07/28 08:46:03;;;;;;;4.15;1.65;;;20.50;89.70;;;;;;5010684;28;20221;-23
2022/07/28 08:48:37;;;;;;;2.40;1.15;;;20.60;89.50;;;;;;5018003;28;20198;-23
2022/07/28 08:51:11;;;;;;;2.58;1.20;;;20.60;89.80;;;;;;5028099;28;20212;-26
2022/07/28 08:53:42;;;;;;;4.70;1.52;;;20.70;89.70;;;;;;5026092;28;20229;-25
2022/07/28 08:56:19;;;;;;;3.65;1.35;;;20.80;89.80;;;;;;5028339;28;20738;-25
2022/07/28 08:58:49;;;;;;;3.85;1.25;;;20.80;89.70;;;;;;5026585;28;20268;-26
2022/07/28 09:01:21;;;;;;;3.83;1.70;;;20.90;89.80;;;;;;5020139;28;20279;-25
2022/07/28 09:03:50;;;;;;;4.03;1.48;;;20.90;89.80;;;;;;5013138;28;20557;-25
2022/07/28 09:06:20;;;;;;;2.28;1.40;;;21.00;89.80;;;;;;5015320;28;20716;-26
2022/07/28 09:08:49;;;;;;;3.55;1.65;;;21.00;89.90;;;;;;5027849;28;20655;-25
2022/07/28 09:11:22;;;;;;;6.40;1.05;;;21.00;89.80;;;;;;5021596;28;20212;-25
2022/07/28 09:13:51;;;;;;;3.97;1.48;;;21.10;90.00;;;;;;5015658;28;20216;-23
2022/07/28 09:16:20;;;;;;;4.65;1.15;;;21.20;90.00;;;;;;5009640;28;20205;-23
2022/07/28 09:18:50;;;;;;;3.17;1.33;;;21.20;89.90;;;;;;5015011;28;20225;-25
2022/07/28 09:21:20;;;;;;;6.43;1.25;;;21.20;89.50;;;;;;5018195;28;20299;-25
2022/07/28 09:23:48;;;;;;;5.93;1.30;;;21.30;89.60;;;;;;5027289;28;20627;-25
2022/07/28 09:26:18;;;;;;;5.07;1.38;;;21.30;89.70;;;;;;5027303;28;20715;-25
2022/07/28 09:28:56;;;;;;;5.35;1.55;;;21.30;89.50;;;;;;5027421;28;20696;-26
2022/07/28 09:31:27;;;;;;;2.72;1.40;;;21.30;89.30;;;;;;5013481;28;20236;-25
2022/07/28 09:33:59;;;;;;;3.63;1.20;;;21.30;89.30;;;;;;5025138;28;20263;-23
2022/07/28 09:36:37;;;;;;;4.18;1.50;;;21.40;89.60;;;;;;5025019;28;20251;-23
2022/07/28 09:39:08;;;;;;;4.30;1.20;;;21.40;89.20;;;;;;5028888;28;20769;-23
2022/07/28 09:42:07;;;;;;;3.75;1.40;;;21.50;89.60;;;;;;5014751;28;20212;-23
2022/07/28 09:44:39;;;;;;;2.58;1.00;;;21.50;89.20;;;;;;4997695;28;20230;-23
2022/07/28 09:47:32;;;;;;;3.40;1.10;;;21.60;89.70;;;;;;5023885;28;21092;-23
2022/07/28 09:50:01;;;;;;;4.53;1.33;;;21.60;89.80;;;;;;5010535;28;20247;-23
2022/07/28 09:52:32;;;;;;;5.78;1.63;;;21.60;89.40;;;;;;5025586;28;20292;-23
2022/07/28 09:55:06;;;;;;;5.47;1.40;;;21.70;88.90;;;;;;5025029;28;20220;-23
2022/07/28 09:57:37;;;;;;;3.25;1.25;;;21.80;89.30;;;;;;5017323;28;20299;-23
2022/07/28 10:00:11;;;;;;;3.03;1.10;;;21.90;89.60;;;;;;5016124;28;20254;-23
2022/07/28 10:02:50;;;;;;;3.33;1.10;;;21.90;89.30;;;;;;5022683;28;20227;-23
2022/07/28 10:05:18;;;;;;;2.38;1.02;;;22.00;89.10;;;;;;5025128;28;20205;-23
2022/07/28 10:07:53;;;;;;;3.90;1.25;;;22.00;89.00;;;;;;5016205;28;20474;-23
2022/07/28 10:10:21;;;;;;;2.55;1.20;;;22.00;88.10;;;;;;5040843;28;20297;-23
2022/07/28 10:13:04;;;;;;;5.50;1.20;;;22.00;87.50;;;;;;5017901;28;20505;-23
2022/07/28 10:18:19;;;;;;;5.32;1.25;;;22.10;87.70;;;;;;5020218;28;20709;-23
2022/07/28 10:20:49;;;;;;;5.13;1.40;;;22.10;87.10;;;;;;5027239;28;20244;-23
2022/07/28 10:23:19;;;;;;;2.92;1.10;;;22.20;87.00;;;;;;5024299;28;20204;-23
2022/07/28 10:25:51;;;;;;;2.53;1.25;;;22.30;87.80;;;;;;5022349;28;20213;-24
2022/07/28 10:28:22;;;;;;;3.88;1.65;;;22.40;88.00;;;;;;5024813;28;20740;-23
2022/07/28 10:30:54;;;;;;;4.88;1.38;;;22.50;88.40;;;;;;5027705;28;20225;-23
2022/07/28 10:33:27;;;;;;;3.75;1.45;;;22.60;87.70;;;;;;5025497;28;20239;-23
2022/07/28 10:35:55;;;;;;;4.35;1.20;;;22.60;88.00;;;;;;5016137;28;20692;-23
2022/07/28 10:38:28;;;;;;;5.32;1.40;;;22.70;88.10;;;;;;5024111;28;20358;-23
2022/07/28 10:41:00;;;;;;;1.85;1.10;;;22.70;88.30;;;;;;5029967;28;20710;-23
2022/07/28 10:43:29;;;;;;;3.72;1.20;;;22.80;88.40;;;;;;5031629;28;20690;-23
2022/07/28 10:45:58;;;;;;;3.10;1.50;;;22.90;88.10;;;;;;5017937;28;20201;-23
2022/07/28 10:48:43;;;;;;;3.92;1.50;;;22.90;87.60;;;;;;5021166;28;20208;-23
2022/07/28 10:51:13;;;;;;;3.70;1.42;;;23.00;87.80;;;;;;5012443;28;20726;-25
2022/07/28 10:54:11;;;;;;;3.53;1.23;;;23.10;87.40;;;;;;5011888;28;20209;-25
2022/07/28 10:56:55;;;;;;;7.32;1.52;;;23.10;86.80;;;;;;5028290;28;20236;-25
2022/07/28 11:00:05;;;;;;;3.13;1.20;;;23.20;87.40;;;;;;5019107;28;20335;-25
2022/07/28 11:02:50;;;;;;;3.85;1.50;;;23.20;86.80;;;;;;5024805;28;20232;-25
2022/07/28 11:05:30;;;;;;;2.97;1.35;;;23.20;86.90;;;;;;5030102;28;20223;-25
2022/07/28 11:08:22;;;;;;;1.38;1.08;;;23.30;87.80;;;;;;5031612;28;20193;-26
2022/07/28 11:10:51;;;;;;;3.55;1.30;;;23.40;87.40;;;;;;5031082;28;20201;-26
2022/07/28 11:13:35;;;;;;;2.55;0.90;;;23.40;85.60;;;;;;5023259;28;20224;-25
2022/07/28 11:16:15;;;;;;;3.42;0.82;;;23.50;87.10;;;;;;5027553;28;20671;-25
2022/07/28 11:19:06;;;;;;;3.33;1.17;;;23.60;87.90;;;;;;5017541;28;20568;-25
2022/07/28 11:22:17;;;;;;;2.33;1.20;;;23.70;88.00;;;;;;5016220;28;20216;-25
2022/07/28 11:24:59;;;;;;;2.35;1.13;;;23.80;88.00;;;;;;5026301;28;20200;-23
2022/07/28 11:27:49;;;;;;;4.85;1.10;;;23.80;88.00;;;;;;5030131;28;20200;-25
2022/07/28 11:30:35;;;;;;;3.45;1.20;;;23.90;87.20;;;;;;5032807;28;20307;-25
2022/07/28 11:33:08;;;;;;;2.10;0.98;;;24.00;86.50;;;;;;5027513;28;20625;-25
2022/07/28 11:35:40;;;;;;;6.50;1.30;;;24.00;87.40;;;;;;5011335;28;20657;-24
2022/07/28 11:38:09;;;;;;;2.30;1.05;;;24.00;86.90;;;;;;5009714;28;20253;-25
2022/07/28 11:40:43;;;;;;;3.13;1.10;;;24.00;86.70;;;;;;5016631;28;20259;-25
2022/07/28 11:43:20;;;;;;;4.13;1.60;;;24.10;86.80;;;;;;5031021;28;20216;-25
2022/07/28 11:46:13;;;;;;;5.72;1.58;;;24.20;87.40;;;;;;5023984;28;20201;-25
2022/07/28 11:49:12;;;;;;;2.80;1.08;;;24.20;84.30;;;;;;5010188;28;20205;-25
2022/07/28 11:52:08;;;;;;;4.78;1.00;;;24.10;84.60;;;;;;5014637;28;20308;-25
2022/07/28 11:54:38;;;;;;;3.47;1.08;;;24.10;84.70;;;;;;5020234;28;20200;-25
2022/07/28 11:57:09;;;;;;;2.95;0.98;;;24.20;86.40;;;;;;5023488;28;20222;-25
2022/07/28 11:59:57;;;;;;;3.38;1.05;;;24.20;86.50;;;;;;5009372;28;20244;-23
2022/07/28 12:02:27;;;;;;;2.88;0.98;;;24.30;87.00;;;;;;5010172;28;20233;-23
2022/07/28 12:05:01;;;;;;;2.78;0.90;;;24.40;86.90;;;;;;5009250;28;20293;-23
2022/07/28 12:07:46;;;;;;;1.17;0.80;;;24.40;86.50;;;;;;5020189;28;20300;-23
2022/07/28 12:10:35;;;;;;;2.25;0.90;;;24.40;87.10;;;;;;5015966;28;20507;-23
2022/07/28 12:13:26;;;;;;;3.03;1.08;;;24.50;87.40;;;;;;5022235;28;20274;-23
2022/07/28 12:15:56;;;;;;;4.55;1.17;;;24.60;87.70;;;;;;5011001;28;20941;-23
2022/07/28 12:18:24;;;;;;;3.28;0.90;;;24.70;87.50;;;;;;5013860;28;20205;-23
2022/07/28 12:20:53;;;;;;;5.13;1.10;;;24.80;88.10;;;;;;5019301;28;20212;-23
2022/07/28 12:23:32;;;;;;;4.95;1.10;;;24.90;87.10;;;;;;5029989;28;20225;-25
2022/07/28 12:26:11;;;;;;;3.55;1.30;;;25.00;87.90;;;;;;5018025;28;20259;-33
2022/07/28 12:28:49;;;;;;;4.93;1.35;;;25.00;87.70;;;;;;5025387;28;20209;-25
2022/07/28 12:31:18;;;;;;;4.35;1.20;;;25.20;87.90;;;;;;5010765;28;20304;-25
2022/07/28 12:33:49;;;;;;;3.03;1.27;;;25.20;87.40;;;;;;5010047;28;20658;-26
2022/07/28 12:36:18;;;;;;;1.88;1.00;;;25.30;87.00;;;;;;5010456;28;20202;-26
2022/07/28 12:38:47;;;;;;;2.42;1.10;;;25.30;87.50;;;;;;5009919;28;20263;-25
2022/07/28 12:41:15;;;;;;;7.00;1.42;;;25.30;87.30;;;;;;5010052;28;20724;-25
2022/07/28 12:43:52;;;;;;;3.90;1.42;;;25.30;86.20;;;;;;5010978;28;20230;-26
2022/07/28 12:46:24;;;;;;;4.03;1.20;;;25.40;86.10;;;;;;5008522;28;20545;-25
2022/07/28 12:48:56;;;;;;;3.78;1.10;;;25.40;86.80;;;;;;5027104;28;20204;-26
2022/07/28 12:51:44;;;;;;;2.95;1.25;;;25.40;85.50;;;;;;5022607;28;20213;-25
2022/07/28 12:54:17;;;;;;;3.05;1.30;;;25.50;87.00;;;;;;5012295;28;20213;-31
2022/07/28 12:56:47;;;;;;;4.38;1.10;;;25.50;86.90;;;;;;5047788;28;20262;-31
2022/07/28 12:59:18;;;;;;;4.85;1.17;;;25.60;87.00;;;;;;5030754;28;20244;-26
2022/07/28 13:01:56;;;;;;;4.50;1.10;;;25.60;87.50;;;;;;5015843;28;20221;-25
2022/07/28 13:04:46;;;;;;;3.47;1.25;;;25.70;87.60;;;;;;5017269;28;20212;-25
2022/07/28 13:07:19;;;;;;;3.85;1.35;;;25.70;86.40;;;;;;5021766;28;20868;-25
2022/07/28 13:09:59;;;;;;;3.65;1.30;;;25.80;87.00;;;;;;5013877;28;20198;-24
2022/07/28 13:12:29;;;;;;;3.20;1.17;;;25.90;87.10;;;;;;5013450;28;20655;-23
2022/07/28 13:15:01;;;;;;;1.83;1.08;;;25.90;86.90;;;;;;5017740;28;20217;-24
2022/07/28 13:17:51;;;;;;;3.33;1.20;;;26.00;87.00;;;;;;5010023;28;20552;-23
2022/07/28 13:20:19;;;;;;;3.40;1.33;;;26.00;85.30;;;;;;5019650;28;20211;-24